sensor_id;sensor_type;location;lat;lon;timestamp;P1;durP1;ratioP1;P2;durP2;ratioP2
20623;SDS011;10471;42.736;23.346;2023-05-16T00:01:09;28.43;;;21.07;;
20623;SDS011;10471;42.736;23.346;2023-05-16T00:03:37;24.47;;;20.53;;
20623;SDS011;10471;42.736;23.346;2023-05-16T00:06:03;25.33;;;20.23;;
20623;SDS011;10471;42.736;23.346;2023-05-16T00:08:29;25.57;;;20.60;;
20623;SDS011;10471;42.736;23.346;2023-05-16T00:10:54;25.40;;;20.47;;
20623;SDS011;10471;42.736;23.346;2023-05-16T00:13:20;28.93;;;21.33;;
20623;SDS011;10471;42.736;23.346;2023-05-16T00:15:49;28.70;;;21.80;;
20623;SDS011;10471;42.736;23.346;2023-05-16T00:18:20;25.40;;;21.30;;
20623;SDS011;10471;42.736;23.346;2023-05-16T00:20:49;28.83;;;21.83;;
20623;SDS011;10471;42.736;23.346;2023-05-16T00:23:16;25.97;;;22.10;;
20623;SDS011;10471;42.736;23.346;2023-05-16T00:25:41;29.83;;;22.47;;
20623;SDS011;10471;42.736;23.346;2023-05-16T00:28:07;26.03;;;22.07;;
20623;SDS011;10471;42.736;23.346;2023-05-16T00:30:32;25.07;;;20.97;;
20623;SDS011;10471;42.736;23.346;2023-05-16T00:32:58;25.07;;;21.37;;
20623;SDS011;10471;42.736;23.346;2023-05-16T00:35:23;26.30;;;21.50;;
20623;SDS011;10471;42.736;23.346;2023-05-16T00:37:49;25.30;;;21.07;;
20623;SDS011;10471;42.736;23.346;2023-05-16T00:40:15;27.13;;;21.73;;
20623;SDS011;10471;42.736;23.346;2023-05-16T00:42:41;24.87;;;20.47;;
20623;SDS011;10471;42.736;23.346;2023-05-16T00:45:07;28.63;;;20.90;;
20623;SDS011;10471;42.736;23.346;2023-05-16T00:47:33;25.53;;;20.73;;
20623;SDS011;10471;42.736;23.346;2023-05-16T00:49:59;29.30;;;21.90;;
20623;SDS011;10471;42.736;23.346;2023-05-16T00:52:25;28.70;;;21.13;;
20623;SDS011;10471;42.736;23.346;2023-05-16T00:54:51;24.13;;;21.53;;
20623;SDS011;10471;42.736;23.346;2023-05-16T00:57:17;30.90;;;23.00;;
20623;SDS011;10471;42.736;23.346;2023-05-16T00:59:45;31.93;;;22.83;;
20623;SDS011;10471;42.736;23.346;2023-05-16T01:02:11;31.97;;;23.13;;
20623;SDS011;10471;42.736;23.346;2023-05-16T01:04:37;32.87;;;22.70;;
20623;SDS011;10471;42.736;23.346;2023-05-16T01:07:03;26.67;;;21.83;;
20623;SDS011;10471;42.736;23.346;2023-05-16T01:09:29;25.53;;;22.13;;
20623;SDS011;10471;42.736;23.346;2023-05-16T01:12:15;25.73;;;20.90;;
20623;SDS011;10471;42.736;23.346;2023-05-16T01:17:42;24.37;;;19.87;;
20623;SDS011;10471;42.736;23.346;2023-05-16T01:25:44;26.57;;;21.37;;
20623;SDS011;10471;42.736;23.346;2023-05-16T01:28:19;26.50;;;20.40;;
20623;SDS011;10471;42.736;23.346;2023-05-16T01:30:45;23.57;;;20.27;;
20623;SDS011;10471;42.736;23.346;2023-05-16T01:33:10;24.00;;;20.40;;
20623;SDS011;10471;42.736;23.346;2023-05-16T01:35:39;24.40;;;19.97;;
20623;SDS011;10471;42.736;23.346;2023-05-16T01:38:20;24.57;;;19.57;;
20623;SDS011;10471;42.736;23.346;2023-05-16T01:40:58;23.30;;;20.60;;
20623;SDS011;10471;42.736;23.346;2023-05-16T01:43:29;24.53;;;19.97;;
20623;SDS011;10471;42.736;23.346;2023-05-16T01:46:11;25.27;;;19.97;;
20623;SDS011;10471;42.736;23.346;2023-05-16T01:48:50;25.40;;;20.17;;
20623;SDS011;10471;42.736;23.346;2023-05-16T01:51:21;24.43;;;20.07;;
20623;SDS011;10471;42.736;23.346;2023-05-16T01:53:51;28.33;;;21.13;;
20623;SDS011;10471;42.736;23.346;2023-05-16T01:56:22;23.83;;;20.50;;
20623;SDS011;10471;42.736;23.346;2023-05-16T01:58:50;24.23;;;20.53;;
20623;SDS011;10471;42.736;23.346;2023-05-16T02:01:17;24.87;;;20.57;;
20623;SDS011;10471;42.736;23.346;2023-05-16T02:03:43;26.60;;;20.43;;
20623;SDS011;10471;42.736;23.346;2023-05-16T02:06:08;27.27;;;21.80;;
20623;SDS011;10471;42.736;23.346;2023-05-16T02:08:33;26.60;;;21.77;;
20623;SDS011;10471;42.736;23.346;2023-05-16T02:10:59;23.07;;;20.57;;
20623;SDS011;10471;42.736;23.346;2023-05-16T02:13:24;25.30;;;21.97;;
20623;SDS011;10471;42.736;23.346;2023-05-16T02:15:50;27.07;;;21.43;;
20623;SDS011;10471;42.736;23.346;2023-05-16T02:18:15;30.57;;;21.60;;
20623;SDS011;10471;42.736;23.346;2023-05-16T02:20:41;26.37;;;21.13;;
20623;SDS011;10471;42.736;23.346;2023-05-16T02:23:06;28.77;;;21.50;;
20623;SDS011;10471;42.736;23.346;2023-05-16T02:25:32;22.13;;;19.93;;
20623;SDS011;10471;42.736;23.346;2023-05-16T02:27:57;23.57;;;20.80;;
20623;SDS011;10471;42.736;23.346;2023-05-16T02:30:22;26.30;;;19.90;;
20623;SDS011;10471;42.736;23.346;2023-05-16T02:32:48;24.93;;;21.03;;
20623;SDS011;10471;42.736;23.346;2023-05-16T02:35:14;24.47;;;19.43;;
20623;SDS011;10471;42.736;23.346;2023-05-16T02:37:40;26.53;;;20.93;;
20623;SDS011;10471;42.736;23.346;2023-05-16T02:40:06;26.70;;;21.40;;
20623;SDS011;10471;42.736;23.346;2023-05-16T02:42:32;26.60;;;22.10;;
20623;SDS011;10471;42.736;23.346;2023-05-16T02:44:57;23.87;;;21.00;;
20623;SDS011;10471;42.736;23.346;2023-05-16T02:47:23;26.30;;;21.47;;
20623;SDS011;10471;42.736;23.346;2023-05-16T02:49:48;27.23;;;20.97;;
20623;SDS011;10471;42.736;23.346;2023-05-16T02:52:16;25.33;;;18.03;;
20623;SDS011;10471;42.736;23.346;2023-05-16T02:54:42;20.87;;;18.27;;
20623;SDS011;10471;42.736;23.346;2023-05-16T02:57:07;22.83;;;18.57;;
20623;SDS011;10471;42.736;23.346;2023-05-16T02:59:33;21.87;;;17.57;;
20623;SDS011;10471;42.736;23.346;2023-05-16T03:01:58;20.57;;;17.30;;
20623;SDS011;10471;42.736;23.346;2023-05-16T03:04:23;22.67;;;17.37;;
20623;SDS011;10471;42.736;23.346;2023-05-16T03:06:49;21.60;;;17.37;;
20623;SDS011;10471;42.736;23.346;2023-05-16T03:09:15;20.03;;;16.70;;
20623;SDS011;10471;42.736;23.346;2023-05-16T03:11:41;21.83;;;17.77;;
20623;SDS011;10471;42.736;23.346;2023-05-16T03:14:06;19.90;;;16.70;;
20623;SDS011;10471;42.736;23.346;2023-05-16T03:16:32;17.73;;;15.93;;
20623;SDS011;10471;42.736;23.346;2023-05-16T03:18:57;21.57;;;17.47;;
20623;SDS011;10471;42.736;23.346;2023-05-16T03:21:23;19.17;;;16.90;;
20623;SDS011;10471;42.736;23.346;2023-05-16T03:23:48;22.43;;;17.10;;
20623;SDS011;10471;42.736;23.346;2023-05-16T03:26:14;19.20;;;17.17;;
20623;SDS011;10471;42.736;23.346;2023-05-16T03:28:39;20.60;;;17.60;;
20623;SDS011;10471;42.736;23.346;2023-05-16T03:31:04;20.27;;;17.97;;
20623;SDS011;10471;42.736;23.346;2023-05-16T03:33:30;21.20;;;16.97;;
20623;SDS011;10471;42.736;23.346;2023-05-16T03:35:55;25.83;;;17.17;;
20623;SDS011;10471;42.736;23.346;2023-05-16T03:38:21;21.77;;;17.43;;
20623;SDS011;10471;42.736;23.346;2023-05-16T03:40:46;19.43;;;17.40;;
20623;SDS011;10471;42.736;23.346;2023-05-16T03:43:11;19.53;;;17.07;;
20623;SDS011;10471;42.736;23.346;2023-05-16T03:45:37;20.57;;;17.60;;
20623;SDS011;10471;42.736;23.346;2023-05-16T03:48:02;23.27;;;18.40;;
20623;SDS011;10471;42.736;23.346;2023-05-16T03:50:28;23.20;;;18.03;;
20623;SDS011;10471;42.736;23.346;2023-05-16T03:52:53;20.63;;;18.47;;
20623;SDS011;10471;42.736;23.346;2023-05-16T03:55:19;23.40;;;19.33;;
20623;SDS011;10471;42.736;23.346;2023-05-16T03:57:45;22.07;;;18.20;;
20623;SDS011;10471;42.736;23.346;2023-05-16T04:00:12;21.93;;;18.33;;
20623;SDS011;10471;42.736;23.346;2023-05-16T04:02:38;20.60;;;17.67;;
20623;SDS011;10471;42.736;23.346;2023-05-16T04:05:05;24.83;;;19.00;;
20623;SDS011;10471;42.736;23.346;2023-05-16T04:07:32;25.00;;;19.60;;
20623;SDS011;10471;42.736;23.346;2023-05-16T04:09:57;24.50;;;19.90;;
20623;SDS011;10471;42.736;23.346;2023-05-16T04:12:23;23.23;;;19.43;;
20623;SDS011;10471;42.736;23.346;2023-05-16T04:14:48;22.43;;;19.47;;
20623;SDS011;10471;42.736;23.346;2023-05-16T04:17:13;23.80;;;18.73;;
20623;SDS011;10471;42.736;23.346;2023-05-16T04:19:39;21.70;;;19.00;;
20623;SDS011;10471;42.736;23.346;2023-05-16T04:22:05;25.30;;;20.17;;
20623;SDS011;10471;42.736;23.346;2023-05-16T04:24:31;22.17;;;18.60;;
20623;SDS011;10471;42.736;23.346;2023-05-16T04:26:57;25.67;;;20.50;;
20623;SDS011;10471;42.736;23.346;2023-05-16T04:29:23;23.53;;;18.27;;
20623;SDS011;10471;42.736;23.346;2023-05-16T04:31:48;25.63;;;19.40;;
20623;SDS011;10471;42.736;23.346;2023-05-16T04:34:13;25.53;;;20.50;;
20623;SDS011;10471;42.736;23.346;2023-05-16T04:36:39;24.97;;;20.27;;
20623;SDS011;10471;42.736;23.346;2023-05-16T04:39:05;24.83;;;21.30;;
20623;SDS011;10471;42.736;23.346;2023-05-16T04:41:31;24.63;;;20.27;;
20623;SDS011;10471;42.736;23.346;2023-05-16T04:43:57;23.13;;;20.57;;
20623;SDS011;10471;42.736;23.346;2023-05-16T04:46:24;27.93;;;21.80;;
20623;SDS011;10471;42.736;23.346;2023-05-16T04:48:50;25.47;;;21.60;;
20623;SDS011;10471;42.736;23.346;2023-05-16T04:51:16;26.40;;;21.90;;
20623;SDS011;10471;42.736;23.346;2023-05-16T04:53:41;24.23;;;20.77;;
20623;SDS011;10471;42.736;23.346;2023-05-16T04:56:07;28.60;;;21.77;;
20623;SDS011;10471;42.736;23.346;2023-05-16T04:58:32;26.07;;;21.50;;
20623;SDS011;10471;42.736;23.346;2023-05-16T05:00:57;27.17;;;21.07;;
20623;SDS011;10471;42.736;23.346;2023-05-16T05:03:23;27.20;;;21.53;;
20623;SDS011;10471;42.736;23.346;2023-05-16T05:05:49;25.70;;;21.30;;
20623;SDS011;10471;42.736;23.346;2023-05-16T05:08:14;30.37;;;22.00;;
20623;SDS011;10471;42.736;23.346;2023-05-16T05:10:40;28.40;;;21.40;;
20623;SDS011;10471;42.736;23.346;2023-05-16T05:13:06;27.07;;;22.30;;
20623;SDS011;10471;42.736;23.346;2023-05-16T05:15:31;30.03;;;21.93;;
20623;SDS011;10471;42.736;23.346;2023-05-16T05:17:57;27.70;;;21.87;;
20623;SDS011;10471;42.736;23.346;2023-05-16T05:20:22;30.83;;;22.20;;
20623;SDS011;10471;42.736;23.346;2023-05-16T05:22:47;27.37;;;21.63;;
20623;SDS011;10471;42.736;23.346;2023-05-16T05:25:13;25.43;;;20.53;;
20623;SDS011;10471;42.736;23.346;2023-05-16T05:27:39;26.60;;;20.67;;
20623;SDS011;10471;42.736;23.346;2023-05-16T05:30:04;26.93;;;20.20;;
20623;SDS011;10471;42.736;23.346;2023-05-16T05:32:30;25.97;;;20.40;;
20623;SDS011;10471;42.736;23.346;2023-05-16T05:34:56;24.93;;;19.90;;
20623;SDS011;10471;42.736;23.346;2023-05-16T05:37:21;28.03;;;19.87;;
20623;SDS011;10471;42.736;23.346;2023-05-16T05:39:47;23.07;;;19.03;;
20623;SDS011;10471;42.736;23.346;2023-05-16T05:42:12;26.70;;;18.80;;
20623;SDS011;10471;42.736;23.346;2023-05-16T05:44:38;23.17;;;18.07;;
20623;SDS011;10471;42.736;23.346;2023-05-16T05:47:04;20.70;;;18.20;;
20623;SDS011;10471;42.736;23.346;2023-05-16T05:49:30;24.50;;;18.33;;
20623;SDS011;10471;42.736;23.346;2023-05-16T05:51:56;25.57;;;17.47;;
20623;SDS011;10471;42.736;23.346;2023-05-16T05:54:22;24.17;;;16.57;;
20623;SDS011;10471;42.736;23.346;2023-05-16T05:56:48;21.90;;;16.93;;
20623;SDS011;10471;42.736;23.346;2023-05-16T05:59:13;21.30;;;15.60;;
20623;SDS011;10471;42.736;23.346;2023-05-16T06:01:39;20.53;;;16.83;;
20623;SDS011;10471;42.736;23.346;2023-05-16T06:04:05;21.23;;;16.27;;
20623;SDS011;10471;42.736;23.346;2023-05-16T06:06:30;24.10;;;17.70;;
20623;SDS011;10471;42.736;23.346;2023-05-16T06:08:56;21.93;;;16.27;;
20623;SDS011;10471;42.736;23.346;2023-05-16T06:11:22;17.37;;;15.10;;
20623;SDS011;10471;42.736;23.346;2023-05-16T06:13:49;18.87;;;15.77;;
20623;SDS011;10471;42.736;23.346;2023-05-16T06:16:15;20.83;;;16.03;;
20623;SDS011;10471;42.736;23.346;2023-05-16T06:18:40;21.13;;;16.10;;
20623;SDS011;10471;42.736;23.346;2023-05-16T06:21:06;20.00;;;15.50;;
20623;SDS011;10471;42.736;23.346;2023-05-16T06:23:32;20.03;;;15.20;;
20623;SDS011;10471;42.736;23.346;2023-05-16T06:25:57;20.47;;;15.20;;
20623;SDS011;10471;42.736;23.346;2023-05-16T06:28:23;23.50;;;15.07;;
20623;SDS011;10471;42.736;23.346;2023-05-16T06:30:49;18.37;;;13.97;;
20623;SDS011;10471;42.736;23.346;2023-05-16T06:33:16;19.60;;;14.97;;
20623;SDS011;10471;42.736;23.346;2023-05-16T06:35:44;19.07;;;14.50;;
20623;SDS011;10471;42.736;23.346;2023-05-16T06:38:12;17.57;;;14.17;;
20623;SDS011;10471;42.736;23.346;2023-05-16T06:40:37;17.13;;;14.83;;
20623;SDS011;10471;42.736;23.346;2023-05-16T06:43:02;18.27;;;14.70;;
20623;SDS011;10471;42.736;23.346;2023-05-16T06:45:28;18.07;;;14.30;;
20623;SDS011;10471;42.736;23.346;2023-05-16T06:47:54;19.60;;;14.83;;
20623;SDS011;10471;42.736;23.346;2023-05-16T06:50:19;18.13;;;14.53;;
20623;SDS011;10471;42.736;23.346;2023-05-16T06:52:45;16.63;;;14.33;;
20623;SDS011;10471;42.736;23.346;2023-05-16T06:55:10;19.00;;;13.80;;
20623;SDS011;10471;42.736;23.346;2023-05-16T06:57:36;19.87;;;14.53;;
20623;SDS011;10471;42.736;23.346;2023-05-16T07:00:02;20.23;;;14.63;;
20623;SDS011;10471;42.736;23.346;2023-05-16T07:02:27;18.67;;;14.47;;
20623;SDS011;10471;42.736;23.346;2023-05-16T07:04:53;20.03;;;14.50;;
20623;SDS011;10471;42.736;23.346;2023-05-16T07:07:19;19.90;;;14.50;;
20623;SDS011;10471;42.736;23.346;2023-05-16T07:09:44;16.83;;;14.17;;
20623;SDS011;10471;42.736;23.346;2023-05-16T07:12:09;18.80;;;13.83;;
20623;SDS011;10471;42.736;23.346;2023-05-16T07:14:35;25.37;;;14.87;;
20623;SDS011;10471;42.736;23.346;2023-05-16T07:17:00;20.30;;;14.50;;
20623;SDS011;10471;42.736;23.346;2023-05-16T07:19:26;17.13;;;14.50;;
20623;SDS011;10471;42.736;23.346;2023-05-16T07:21:51;20.63;;;14.10;;
20623;SDS011;10471;42.736;23.346;2023-05-16T07:24:17;15.80;;;13.93;;
20623;SDS011;10471;42.736;23.346;2023-05-16T07:26:43;16.83;;;13.33;;
20623;SDS011;10471;42.736;23.346;2023-05-16T07:29:08;17.27;;;13.27;;
20623;SDS011;10471;42.736;23.346;2023-05-16T07:31:33;15.20;;;12.43;;
20623;SDS011;10471;42.736;23.346;2023-05-16T07:33:59;17.40;;;12.27;;
20623;SDS011;10471;42.736;23.346;2023-05-16T07:36:25;17.10;;;13.40;;
20623;SDS011;10471;42.736;23.346;2023-05-16T07:38:50;17.93;;;12.80;;
20623;SDS011;10471;42.736;23.346;2023-05-16T07:41:15;18.73;;;12.73;;
20623;SDS011;10471;42.736;23.346;2023-05-16T07:43:41;15.00;;;12.33;;
20623;SDS011;10471;42.736;23.346;2023-05-16T07:46:06;16.77;;;12.50;;
20623;SDS011;10471;42.736;23.346;2023-05-16T07:48:31;16.40;;;12.43;;
20623;SDS011;10471;42.736;23.346;2023-05-16T07:50:57;17.40;;;11.27;;
20623;SDS011;10471;42.736;23.346;2023-05-16T07:53:22;14.90;;;11.90;;
20623;SDS011;10471;42.736;23.346;2023-05-16T07:55:48;16.70;;;11.60;;
20623;SDS011;10471;42.736;23.346;2023-05-16T07:58:14;15.27;;;10.73;;
20623;SDS011;10471;42.736;23.346;2023-05-16T08:00:39;15.40;;;10.60;;
20623;SDS011;10471;42.736;23.346;2023-05-16T08:03:05;17.90;;;11.30;;
20623;SDS011;10471;42.736;23.346;2023-05-16T08:05:30;17.73;;;12.23;;
20623;SDS011;10471;42.736;23.346;2023-05-16T08:07:56;14.40;;;11.00;;
20623;SDS011;10471;42.736;23.346;2023-05-16T08:10:22;14.10;;;11.50;;
20623;SDS011;10471;42.736;23.346;2023-05-16T08:12:48;16.67;;;11.60;;
20623;SDS011;10471;42.736;23.346;2023-05-16T08:15:13;16.60;;;12.00;;
20623;SDS011;10471;42.736;23.346;2023-05-16T08:17:39;15.50;;;11.77;;
20623;SDS011;10471;42.736;23.346;2023-05-16T08:20:05;16.03;;;11.90;;
20623;SDS011;10471;42.736;23.346;2023-05-16T08:22:31;17.87;;;11.10;;
20623;SDS011;10471;42.736;23.346;2023-05-16T08:24:57;18.40;;;11.20;;
20623;SDS011;10471;42.736;23.346;2023-05-16T08:27:24;19.50;;;11.57;;
20623;SDS011;10471;42.736;23.346;2023-05-16T08:29:50;19.70;;;12.07;;
20623;SDS011;10471;42.736;23.346;2023-05-16T08:32:16;17.30;;;11.13;;
20623;SDS011;10471;42.736;23.346;2023-05-16T08:34:41;12.90;;;10.70;;
20623;SDS011;10471;42.736;23.346;2023-05-16T08:37:06;14.60;;;10.67;;
20623;SDS011;10471;42.736;23.346;2023-05-16T08:39:32;14.73;;;10.87;;
20623;SDS011;10471;42.736;23.346;2023-05-16T08:41:57;19.13;;;11.03;;
20623;SDS011;10471;42.736;23.346;2023-05-16T08:44:24;14.13;;;11.40;;
20623;SDS011;10471;42.736;23.346;2023-05-16T08:46:50;13.73;;;10.73;;
20623;SDS011;10471;42.736;23.346;2023-05-16T08:49:17;15.57;;;10.83;;
20623;SDS011;10471;42.736;23.346;2023-05-16T08:51:43;19.73;;;10.30;;
20623;SDS011;10471;42.736;23.346;2023-05-16T08:54:11;13.80;;;9.80;;
20623;SDS011;10471;42.736;23.346;2023-05-16T08:56:39;17.90;;;10.20;;
20623;SDS011;10471;42.736;23.346;2023-05-16T08:59:06;13.40;;;9.30;;
20623;SDS011;10471;42.736;23.346;2023-05-16T09:01:31;17.87;;;10.37;;
20623;SDS011;10471;42.736;23.346;2023-05-16T09:03:57;15.10;;;9.90;;
20623;SDS011;10471;42.736;23.346;2023-05-16T09:06:23;15.70;;;10.30;;
20623;SDS011;10471;42.736;23.346;2023-05-16T09:08:49;17.13;;;9.93;;
20623;SDS011;10471;42.736;23.346;2023-05-16T09:11:14;13.53;;;9.93;;
20623;SDS011;10471;42.736;23.346;2023-05-16T09:13:40;14.83;;;10.07;;
20623;SDS011;10471;42.736;23.346;2023-05-16T09:16:09;13.07;;;9.13;;
20623;SDS011;10471;42.736;23.346;2023-05-16T09:18:36;12.37;;;8.97;;
20623;SDS011;10471;42.736;23.346;2023-05-16T09:21:03;12.53;;;8.70;;
20623;SDS011;10471;42.736;23.346;2023-05-16T09:23:29;12.13;;;8.30;;
20623;SDS011;10471;42.736;23.346;2023-05-16T09:25:56;12.23;;;9.57;;
20623;SDS011;10471;42.736;23.346;2023-05-16T09:28:22;13.80;;;9.17;;
20623;SDS011;10471;42.736;23.346;2023-05-16T09:30:50;14.40;;;10.00;;
20623;SDS011;10471;42.736;23.346;2023-05-16T09:33:17;19.53;;;9.60;;
20623;SDS011;10471;42.736;23.346;2023-05-16T09:35:42;13.03;;;8.50;;
20623;SDS011;10471;42.736;23.346;2023-05-16T09:38:14;12.13;;;8.70;;
20623;SDS011;10471;42.736;23.346;2023-05-16T09:40:41;13.87;;;8.47;;
20623;SDS011;10471;42.736;23.346;2023-05-16T09:43:07;12.17;;;8.60;;
20623;SDS011;10471;42.736;23.346;2023-05-16T09:45:33;13.10;;;9.57;;
20623;SDS011;10471;42.736;23.346;2023-05-16T09:48:06;11.83;;;10.37;;
20623;SDS011;10471;42.736;23.346;2023-05-16T09:50:34;14.00;;;9.83;;
20623;SDS011;10471;42.736;23.346;2023-05-16T09:53:01;16.57;;;9.30;;
20623;SDS011;10471;42.736;23.346;2023-05-16T09:55:27;13.80;;;9.67;;
20623;SDS011;10471;42.736;23.346;2023-05-16T09:57:52;15.93;;;9.50;;
20623;SDS011;10471;42.736;23.346;2023-05-16T10:00:18;13.73;;;9.53;;
20623;SDS011;10471;42.736;23.346;2023-05-16T10:02:43;17.03;;;10.17;;
20623;SDS011;10471;42.736;23.346;2023-05-16T10:05:09;14.83;;;9.60;;
20623;SDS011;10471;42.736;23.346;2023-05-16T10:07:35;17.43;;;10.47;;
20623;SDS011;10471;42.736;23.346;2023-05-16T10:10:04;14.67;;;9.57;;
20623;SDS011;10471;42.736;23.346;2023-05-16T10:12:31;15.43;;;9.60;;
20623;SDS011;10471;42.736;23.346;2023-05-16T10:14:58;16.90;;;9.93;;
20623;SDS011;10471;42.736;23.346;2023-05-16T10:17:25;11.37;;;9.03;;
20623;SDS011;10471;42.736;23.346;2023-05-16T10:19:52;14.43;;;9.17;;
20623;SDS011;10471;42.736;23.346;2023-05-16T10:22:18;14.87;;;9.13;;
20623;SDS011;10471;42.736;23.346;2023-05-16T10:27:22;12.97;;;8.97;;
20623;SDS011;10471;42.736;23.346;2023-05-16T10:29:49;12.33;;;9.13;;
20623;SDS011;10471;42.736;23.346;2023-05-16T10:32:16;16.30;;;9.47;;
20623;SDS011;10471;42.736;23.346;2023-05-16T10:34:42;15.13;;;9.27;;
20623;SDS011;10471;42.736;23.346;2023-05-16T10:37:10;16.67;;;10.30;;
20623;SDS011;10471;42.736;23.346;2023-05-16T10:39:35;15.53;;;10.03;;
20623;SDS011;10471;42.736;23.346;2023-05-16T10:42:03;15.87;;;9.27;;
20623;SDS011;10471;42.736;23.346;2023-05-16T10:44:31;14.00;;;10.10;;
20623;SDS011;10471;42.736;23.346;2023-05-16T10:46:58;14.93;;;9.80;;
20623;SDS011;10471;42.736;23.346;2023-05-16T10:49:25;15.80;;;10.03;;
20623;SDS011;10471;42.736;23.346;2023-05-16T10:54:33;16.43;;;10.10;;
20623;SDS011;10471;42.736;23.346;2023-05-16T10:57:03;17.07;;;9.70;;
20623;SDS011;10471;42.736;23.346;2023-05-16T10:59:30;13.60;;;9.10;;
20623;SDS011;10471;42.736;23.346;2023-05-16T11:02:06;13.80;;;9.00;;
20623;SDS011;10471;42.736;23.346;2023-05-16T11:04:48;16.20;;;9.33;;
20623;SDS011;10471;42.736;23.346;2023-05-16T11:07:16;12.53;;;9.33;;
20623;SDS011;10471;42.736;23.346;2023-05-16T11:09:43;11.73;;;9.10;;
20623;SDS011;10471;42.736;23.346;2023-05-16T11:12:09;15.00;;;9.77;;
20623;SDS011;10471;42.736;23.346;2023-05-16T11:14:38;12.77;;;9.43;;
20623;SDS011;10471;42.736;23.346;2023-05-16T11:17:11;14.70;;;9.10;;
20623;SDS011;10471;42.736;23.346;2023-05-16T11:24:50;13.77;;;8.23;;
20623;SDS011;10471;42.736;23.346;2023-05-16T11:27:30;14.00;;;9.37;;
20623;SDS011;10471;42.736;23.346;2023-05-16T11:30:10;14.67;;;9.47;;
20623;SDS011;10471;42.736;23.346;2023-05-16T11:32:40;17.10;;;9.50;;
20623;SDS011;10471;42.736;23.346;2023-05-16T11:35:08;16.83;;;9.30;;
20623;SDS011;10471;42.736;23.346;2023-05-16T11:37:35;14.03;;;10.10;;
20623;SDS011;10471;42.736;23.346;2023-05-16T11:40:02;15.90;;;9.50;;
20623;SDS011;10471;42.736;23.346;2023-05-16T11:42:33;14.70;;;9.03;;
20623;SDS011;10471;42.736;23.346;2023-05-16T11:47:31;14.80;;;9.37;;
20623;SDS011;10471;42.736;23.346;2023-05-16T11:49:56;16.43;;;9.07;;
20623;SDS011;10471;42.736;23.346;2023-05-16T11:52:22;19.13;;;8.83;;
20623;SDS011;10471;42.736;23.346;2023-05-16T11:54:47;12.30;;;8.50;;
20623;SDS011;10471;42.736;23.346;2023-05-16T11:57:14;14.60;;;8.40;;
20623;SDS011;10471;42.736;23.346;2023-05-16T11:59:40;13.67;;;8.30;;
20623;SDS011;10471;42.736;23.346;2023-05-16T12:02:06;15.43;;;8.87;;
20623;SDS011;10471;42.736;23.346;2023-05-16T12:04:34;12.57;;;8.63;;
20623;SDS011;10471;42.736;23.346;2023-05-16T12:07:00;19.03;;;8.70;;
20623;SDS011;10471;42.736;23.346;2023-05-16T12:09:26;17.23;;;8.27;;
20623;SDS011;10471;42.736;23.346;2023-05-16T12:11:51;13.30;;;8.30;;
20623;SDS011;10471;42.736;23.346;2023-05-16T12:14:17;13.27;;;7.83;;
20623;SDS011;10471;42.736;23.346;2023-05-16T12:16:44;15.00;;;8.27;;
20623;SDS011;10471;42.736;23.346;2023-05-16T12:19:10;15.63;;;8.77;;
20623;SDS011;10471;42.736;23.346;2023-05-16T12:21:37;15.93;;;9.00;;
20623;SDS011;10471;42.736;23.346;2023-05-16T12:24:02;18.13;;;9.10;;
20623;SDS011;10471;42.736;23.346;2023-05-16T12:26:29;17.43;;;8.17;;
20623;SDS011;10471;42.736;23.346;2023-05-16T12:28:57;13.10;;;8.07;;
20623;SDS011;10471;42.736;23.346;2023-05-16T12:31:25;11.93;;;7.77;;
20623;SDS011;10471;42.736;23.346;2023-05-16T12:33:54;11.60;;;7.57;;
20623;SDS011;10471;42.736;23.346;2023-05-16T12:36:20;14.67;;;7.80;;
20623;SDS011;10471;42.736;23.346;2023-05-16T12:38:46;9.87;;;7.77;;
20623;SDS011;10471;42.736;23.346;2023-05-16T12:41:18;13.87;;;8.60;;
20623;SDS011;10471;42.736;23.346;2023-05-16T12:43:47;15.50;;;8.70;;
20623;SDS011;10471;42.736;23.346;2023-05-16T12:46:13;11.27;;;9.07;;
20623;SDS011;10471;42.736;23.346;2023-05-16T12:48:39;14.43;;;9.70;;
20623;SDS011;10471;42.736;23.346;2023-05-16T12:51:12;15.97;;;9.30;;
20623;SDS011;10471;42.736;23.346;2023-05-16T12:53:45;14.30;;;9.23;;
20623;SDS011;10471;42.736;23.346;2023-05-16T12:56:12;14.97;;;9.17;;
20623;SDS011;10471;42.736;23.346;2023-05-16T12:58:39;13.57;;;9.07;;
20623;SDS011;10471;42.736;23.346;2023-05-16T13:01:07;13.10;;;9.33;;
20623;SDS011;10471;42.736;23.346;2023-05-16T13:03:33;15.73;;;9.03;;
20623;SDS011;10471;42.736;23.346;2023-05-16T13:05:59;19.83;;;9.10;;
20623;SDS011;10471;42.736;23.346;2023-05-16T13:08:25;14.83;;;9.13;;
20623;SDS011;10471;42.736;23.346;2023-05-16T13:10:51;14.97;;;9.00;;
20623;SDS011;10471;42.736;23.346;2023-05-16T13:13:17;17.20;;;9.70;;
20623;SDS011;10471;42.736;23.346;2023-05-16T13:15:45;15.13;;;8.93;;
20623;SDS011;10471;42.736;23.346;2023-05-16T13:18:12;13.53;;;9.03;;
20623;SDS011;10471;42.736;23.346;2023-05-16T13:20:38;13.20;;;9.13;;
20623;SDS011;10471;42.736;23.346;2023-05-16T13:23:03;13.77;;;9.30;;
20623;SDS011;10471;42.736;23.346;2023-05-16T13:25:29;15.23;;;8.97;;
20623;SDS011;10471;42.736;23.346;2023-05-16T13:27:55;15.10;;;9.90;;
20623;SDS011;10471;42.736;23.346;2023-05-16T13:30:20;15.80;;;9.50;;
20623;SDS011;10471;42.736;23.346;2023-05-16T13:32:46;13.67;;;9.47;;
20623;SDS011;10471;42.736;23.346;2023-05-16T13:35:12;11.83;;;9.27;;
20623;SDS011;10471;42.736;23.346;2023-05-16T13:37:37;15.97;;;9.10;;
20623;SDS011;10471;42.736;23.346;2023-05-16T13:40:03;17.67;;;9.33;;
20623;SDS011;10471;42.736;23.346;2023-05-16T13:42:29;15.53;;;10.33;;
20623;SDS011;10471;42.736;23.346;2023-05-16T13:44:54;19.13;;;9.50;;
20623;SDS011;10471;42.736;23.346;2023-05-16T13:47:20;17.77;;;9.80;;
20623;SDS011;10471;42.736;23.346;2023-05-16T13:49:45;13.50;;;9.43;;
20623;SDS011;10471;42.736;23.346;2023-05-16T13:52:11;29.07;;;10.30;;
20623;SDS011;10471;42.736;23.346;2023-05-16T13:54:37;14.53;;;9.03;;
20623;SDS011;10471;42.736;23.346;2023-05-16T13:57:04;21.87;;;9.70;;
20623;SDS011;10471;42.736;23.346;2023-05-16T13:59:31;15.23;;;9.57;;
20623;SDS011;10471;42.736;23.346;2023-05-16T14:01:57;15.53;;;9.97;;
20623;SDS011;10471;42.736;23.346;2023-05-16T14:04:22;18.40;;;9.03;;
20623;SDS011;10471;42.736;23.346;2023-05-16T14:06:47;15.87;;;9.80;;
20623;SDS011;10471;42.736;23.346;2023-05-16T14:09:13;17.77;;;9.87;;
20623;SDS011;10471;42.736;23.346;2023-05-16T14:11:39;20.40;;;10.10;;
20623;SDS011;10471;42.736;23.346;2023-05-16T14:14:04;15.50;;;10.20;;
20623;SDS011;10471;42.736;23.346;2023-05-16T14:16:30;17.37;;;9.97;;
20623;SDS011;10471;42.736;23.346;2023-05-16T14:18:55;19.37;;;9.97;;
20623;SDS011;10471;42.736;23.346;2023-05-16T14:21:21;18.73;;;10.07;;
20623;SDS011;10471;42.736;23.346;2023-05-16T14:23:46;19.27;;;10.23;;
20623;SDS011;10471;42.736;23.346;2023-05-16T14:26:12;20.10;;;10.83;;
20623;SDS011;10471;42.736;23.346;2023-05-16T14:28:38;17.70;;;10.27;;
20623;SDS011;10471;42.736;23.346;2023-05-16T14:31:03;16.73;;;9.10;;